Phoenix, Arizona
Traffic Map
Current Weather Conditions
Phoenix, Arizona
Few Clouds
Few Clouds
50°
Feels Like: 50°
Wind Chill: 50° Ceiling: Unl
Heat Index: 50° Visibility: 10mi
Dew Point: 43° Wind: 6mph
Humidity: 77% Direction: 90° (E)
Pressure: 30.09in Gusts: 0mph
Raw Report DataKPHX 210951Z 09005KT 10SM FEW200 10/06 A3009 RMK AO2 SLP184 T01000061
Traffic Incident Summary
Active as of:
Severity:
Category:
InformationThere was an issue retrieving the traffic information for this location. Please try a different location or try again shortly.
Advertisements
Track Severe Weather on mobile